Time;durP1;ratioP1;P1;durP2;ratioP2;P2;SDS_P1;SDS_P2;PMS_P1;PMS_P2;Temp;Humidity;BMP_temperature;BMP_pressure;BME280_temperature;BME280_humidity;BME280_pressure;Samples;Min_cycle;Max_cycle;Signal;HPM_P1;HPM_P2
2023/10/08 00:02:43;;;;;;;;;;;;;;;;;;6309842;28;19920;-86
2023/10/08 00:05:43;;;;;;;;;;;;;;;;;;6322007;28;19954;-85
2023/10/08 00:08:43;;;;;;;;;;;;;;;;;;6301995;28;19916;-85
2023/10/08 00:11:43;;;;;;;;;;;;;;;;;;6331338;28;20381;-85
2023/10/08 00:14:44;;;;;;;;;;;;;;;;;;6330399;28;19918;-85
2023/10/08 00:17:45;;;;;;;;;;;;;;;;;;6329944;28;19916;-86
2023/10/08 00:20:54;;;;;;;;;;;;;;;;;;6321503;28;19908;-85
2023/10/08 00:23:57;;;;;;;;;;;;;;;;;;6334242;28;19911;-86
2023/10/08 00:27:00;;;;;;;;;;;;;;;;;;6329408;28;20235;-86
2023/10/08 00:30:00;;;;;;;;;;;;;;;;;;6305718;28;20342;-87
2023/10/08 00:33:00;;;;;;;;;;;;;;;;;;6308408;28;19942;-88
2023/10/08 00:36:06;;;;;;;;;;;;;;;;;;6316924;28;20388;-88
2023/10/08 00:39:26;;;;;;;;;;;;;;;;;;6311512;28;19908;-87
2023/10/08 00:42:28;;;;;;;;;;;;;;;;;;6345362;28;19908;-87
2023/10/08 00:45:30;;;;;;;;;;;;;;;;;;6328413;28;20355;-87
2023/10/08 00:48:35;;;;;;;;;;;;;;;;;;6333663;28;19919;-88
2023/10/08 00:51:40;;;;;;;;;;;;;;;;;;6337949;28;19923;-89
2023/10/08 00:58:08;;;;;;;;;;;;;;;;;;6339564;28;19924;-87
2023/10/08 01:01:10;;;;;;;;;;;;;;;;;;6327756;28;19922;-87
2023/10/08 01:04:11;;;;;;;;;;;;;;;;;;6337557;28;20373;-86
2023/10/08 01:07:18;;;;;;;;;;;;;;;;;;6310592;28;19919;-86
2023/10/08 01:10:24;;;;;;;;;;;;;;;;;;6345639;27;19919;-86
2023/10/08 01:13:26;;;;;;;;;;;;;;;;;;6306510;28;19920;-86
2023/10/08 01:16:27;;;;;;;;;;;;;;;;;;6322649;28;20289;-86
2023/10/08 01:19:27;;;;;;;;;;;;;;;;;;6302430;28;20038;-86
2023/10/08 01:22:29;;;;;;;;;;;;;;;;;;6334309;28;19933;-86
2023/10/08 01:25:30;;;;;;;;;;;;;;;;;;6324961;28;19912;-86
2023/10/08 01:28:30;;;;;;;;;;;;;;;;;;6309227;28;19913;-86
2023/10/08 01:31:31;;;;;;;;;;;;;;;;;;6318101;28;20014;-86
2023/10/08 01:34:35;;;;;;;;;;;;;;;;;;6323566;28;20010;-86
2023/10/08 01:37:36;;;;;;;;;;;;;;;;;;6322497;28;19916;-86
2023/10/08 01:40:36;;;;;;;;;;;;;;;;;;6339301;28;20310;-87
2023/10/08 01:43:38;;;;;;;;;;;;;;;;;;6322369;28;20480;-86
2023/10/08 01:46:40;;;;;;;;;;;;;;;;;;6337969;28;19912;-86
2023/10/08 01:49:42;;;;;;;;;;;;;;;;;;6325483;28;20282;-86
2023/10/08 01:52:46;;;;;;;;;;;;;;;;;;6339715;28;19915;-87
2023/10/08 01:55:49;;;;;;;;;;;;;;;;;;6341161;28;19939;-87
2023/10/08 01:58:49;;;;;;;;;;;;;;;;;;6322287;28;20011;-87
2023/10/08 02:01:55;;;;;;;;;;;;;;;;;;6317605;28;19919;-88
2023/10/08 02:04:55;;;;;;;;;;;;;;;;;;6322304;28;20007;-87
2023/10/08 02:07:58;;;;;;;;;;;;;;;;;;6326775;28;20342;-89
2023/10/08 02:10:59;;;;;;;;;;;;;;;;;;6321844;28;20290;-87
2023/10/08 02:13:59;;;;;;;;;;;;;;;;;;6319882;28;20006;-86
2023/10/08 02:17:03;;;;;;;;;;;;;;;;;;6332222;28;20254;-87
2023/10/08 02:20:05;;;;;;;;;;;;;;;;;;6332048;28;19912;-87
2023/10/08 02:23:05;;;;;;;;;;;;;;;;;;6317516;28;19955;-86
2023/10/08 02:26:05;;;;;;;;;;;;;;;;;;6334965;28;19912;-86
2023/10/08 02:29:11;;;;;;;;;;;;;;;;;;6320604;28;20368;-87
2023/10/08 02:32:11;;;;;;;;;;;;;;;;;;6309611;28;19916;-88
2023/10/08 02:35:12;;;;;;;;;;;;;;;;;;6303036;28;20362;-86
2023/10/08 02:38:13;;;;;;;;;;;;;;;;;;6324696;28;19908;-86
2023/10/08 02:41:15;;;;;;;;;;;;;;;;;;6315413;28;20431;-85
2023/10/08 02:44:15;;;;;;;;;;;;;;;;;;6331042;28;20171;-85
2023/10/08 02:47:18;;;;;;;;;;;;;;;;;;6327939;28;19999;-86
2023/10/08 02:50:18;;;;;;;;;;;;;;;;;;6312582;28;19948;-87
2023/10/08 02:53:20;;;;;;;;;;;;;;;;;;6304393;28;20006;-87
2023/10/08 02:56:21;;;;;;;;;;;;;;;;;;6303387;28;20312;-87
2023/10/08 02:59:22;;;;;;;;;;;;;;;;;;6340167;28;20282;-85
2023/10/08 03:02:22;;;;;;;;;;;;;;;;;;6328464;28;19970;-87
2023/10/08 03:05:22;;;;;;;;;;;;;;;;;;6343031;28;19935;-88
2023/10/08 03:08:23;;;;;;;;;;;;;;;;;;6315339;28;20267;-88
2023/10/08 03:11:26;;;;;;;;;;;;;;;;;;6329860;27;20323;-87
2023/10/08 03:14:26;;;;;;;;;;;;;;;;;;6340779;28;19976;-85
2023/10/08 03:17:26;;;;;;;;;;;;;;;;;;6321771;28;19944;-86
2023/10/08 03:20:29;;;;;;;;;;;;;;;;;;6331867;28;19919;-87
2023/10/08 03:23:36;;;;;;;;;;;;;;;;;;6325727;28;19908;-86
2023/10/08 03:26:38;;;;;;;;;;;;;;;;;;6310929;28;19912;-86
2023/10/08 03:29:41;;;;;;;;;;;;;;;;;;6305350;28;19911;-86
2023/10/08 03:32:43;;;;;;;;;;;;;;;;;;6311424;28;19920;-86
2023/10/08 03:35:43;;;;;;;;;;;;;;;;;;6320766;28;20378;-86
2023/10/08 03:38:50;;;;;;;;;;;;;;;;;;6315680;28;19969;-86
2023/10/08 03:42:07;;;;;;;;;;;;;;;;;;6329015;28;19965;-86
2023/10/08 03:45:10;;;;;;;;;;;;;;;;;;6319259;28;19936;-87
2023/10/08 03:48:15;;;;;;;;;;;;;;;;;;6302141;28;19912;-86
2023/10/08 03:51:19;;;;;;;;;;;;;;;;;;6321613;28;20330;-87
2023/10/08 03:54:27;;;;;;;;;;;;;;;;;;6332056;28;19912;-87
2023/10/08 03:57:41;;;;;;;;;;;;;;;;;;6323532;28;20435;-87
2023/10/08 04:00:41;;;;;;;;;;;;;;;;;;6333523;28;19919;-86
2023/10/08 04:06:54;;;;;;;;;;;;;;;;;;6327406;28;19981;-86
2023/10/08 04:10:20;;;;;;;;;;;;;;;;;;6335936;27;20416;-87
2023/10/08 04:13:20;;;;;;;;;;;;;;;;;;6341513;28;20656;-87
2023/10/08 04:16:20;;;;;;;;;;;;;;;;;;6310989;28;20399;-86
2023/10/08 04:19:21;;;;;;;;;;;;;;;;;;6329274;28;20391;-86
2023/10/08 04:22:21;;;;;;;;;;;;;;;;;;6329943;28;20442;-87
2023/10/08 04:25:21;;;;;;;;;;;;;;;;;;6318704;28;19923;-87
2023/10/08 04:28:21;;;;;;;;;;;;;;;;;;6319682;28;20387;-86
2023/10/08 04:31:27;;;;;;;;;;;;;;;;;;6309027;28;19915;-86
2023/10/08 04:34:28;;;;;;;;;;;;;;;;;;6316009;28;19934;-86
2023/10/08 04:37:32;;;;;;;;;;;;;;;;;;6332319;28;19912;-85
2023/10/08 04:40:41;;;;;;;;;;;;;;;;;;6333223;28;19915;-86
2023/10/08 04:43:42;;;;;;;;;;;;;;;;;;6340422;28;20022;-86
2023/10/08 04:49:46;;;;;;;;;;;;;;;;;;6331288;28;20010;-85
2023/10/08 04:52:58;;;;;;;;;;;;;;;;;;6309970;28;19927;-85
2023/10/08 04:55:59;;;;;;;;;;;;;;;;;;6307831;28;19916;-85
2023/10/08 04:58:59;;;;;;;;;;;;;;;;;;6328432;28;20011;-86
2023/10/08 05:05:21;;;;;;;;;;;;;;;;;;6330231;28;19912;-86
2023/10/08 05:15:21;;;;;;;;;;;;;;;;;;6331600;28;20316;-86
2023/10/08 05:21:28;;;;;;;;;;;;;;;;;;6327232;28;20350;-86
2023/10/08 05:24:37;;;;;;;;;;;;;;;;;;6325738;28;19959;-85
2023/10/08 05:27:56;;;;;;;;;;;;;;;;;;6334382;28;19985;-86
2023/10/08 05:31:36;;;;;;;;;;;;;;;;;;6323860;28;19916;-85
2023/10/08 05:34:42;;;;;;;;;;;;;;;;;;6320398;28;19919;-85
2023/10/08 05:37:47;;;;;;;;;;;;;;;;;;6333256;28;19920;-87
2023/10/08 05:44:14;;;;;;;;;;;;;;;;;;6340230;27;19916;-88
2023/10/08 05:50:39;;;;;;;;;;;;;;;;;;6329757;28;19920;-87
2023/10/08 05:53:48;;;;;;;;;;;;;;;;;;6310028;28;19923;-87
2023/10/08 05:57:06;;;;;;;;;;;;;;;;;;6323827;28;19928;-87
2023/10/08 06:03:09;;;;;;;;;;;;;;;;;;6328547;28;19915;-87
2023/10/08 06:12:29;;;;;;;;;;;;;;;;;;6340056;27;19916;-86
2023/10/08 06:15:48;;;;;;;;;;;;;;;;;;6336401;28;20502;-87
2023/10/08 06:18:49;;;;;;;;;;;;;;;;;;6302082;28;19955;-87
2023/10/08 06:21:49;;;;;;;;;;;;;;;;;;6327815;28;19923;-87
2023/10/08 06:24:49;;;;;;;;;;;;;;;;;;6309162;28;20314;-86
2023/10/08 06:27:53;;;;;;;;;;;;;;;;;;6310378;28;19919;-87
2023/10/08 06:30:54;;;;;;;;;;;;;;;;;;6333815;28;20281;-86
2023/10/08 06:33:54;;;;;;;;;;;;;;;;;;6311817;28;19912;-88
2023/10/08 06:36:54;;;;;;;;;;;;;;;;;;6319773;28;19998;-87
2023/10/08 06:39:57;;;;;;;;;;;;;;;;;;6331831;28;19911;-86
2023/10/08 06:43:03;;;;;;;;;;;;;;;;;;6313391;28;19916;-87
2023/10/08 06:46:03;;;;;;;;;;;;;;;;;;6309768;28;20625;-87
2023/10/08 06:49:11;;;;;;;;;;;;;;;;;;6314119;28;19923;-86
2023/10/08 06:52:13;;;;;;;;;;;;;;;;;;6322569;28;19957;-85
2023/10/08 06:55:17;;;;;;;;;;;;;;;;;;6313544;28;19985;-85
2023/10/08 06:58:17;;;;;;;;;;;;;;;;;;6324274;28;19986;-84
2023/10/08 07:04:47;;;;;;;;;;;;;;;;;;6324988;28;19916;-82
2023/10/08 07:07:48;;;;;;;;;;;;;;;;;;6332225;27;20025;-82
2023/10/08 07:10:49;;;;;;;;;;;;;;;;;;6324452;28;19920;-84
2023/10/08 07:13:50;;;;;;;;;;;;;;;;;;6311402;28;19923;-84
2023/10/08 07:16:54;;;;;;;;;;;;;;;;;;6316649;28;19941;-84
2023/10/08 07:19:54;;;;;;;;;;;;;;;;;;6322191;28;20429;-83
2023/10/08 07:22:54;;;;;;;;;;;;;;;;;;6321622;28;19922;-84
2023/10/08 07:26:01;;;;;;;;;;;;;;;;;;6320770;28;19934;-83
2023/10/08 07:29:07;;;;;;;;;;;;;;;;;;6321374;28;19915;-84
2023/10/08 07:32:11;;;;;;;;;;;;;;;;;;6343790;28;19915;-84
2023/10/08 07:38:21;;;;;;;;;;;;;;;;;;6340886;28;20468;-82
2023/10/08 07:41:22;;;;;;;;;;;;;;;;;;6313933;28;19923;-83
2023/10/08 07:44:23;;;;;;;;;;;;;;;;;;6339095;28;19912;-82
2023/10/08 07:47:23;;;;;;;;;;;;;;;;;;6347766;28;19923;-82
2023/10/08 07:50:24;;;;;;;;;;;;;;;;;;6333921;28;20084;-83
2023/10/08 07:53:24;;;;;;;;;;;;;;;;;;6335520;28;20377;-83
2023/10/08 07:56:24;;;;;;;;;;;;;;;;;;6321438;28;19938;-83
2023/10/08 07:59:24;;;;;;;;;;;;;;;;;;6328220;28;19918;-84
2023/10/08 08:02:26;;;;;;;;;;;;;;;;;;6327377;28;19916;-84
2023/10/08 08:05:26;;;;;;;;;;;;;;;;;;6334925;28;19968;-83
2023/10/08 08:08:27;;;;;;;;;;;;;;;;;;6332233;28;19920;-83
2023/10/08 08:11:27;;;;;;;;;;;;;;;;;;6321500;28;20460;-83
2023/10/08 08:14:28;;;;;;;;;;;;;;;;;;6328488;28;19915;-84
2023/10/08 08:17:30;;;;;;;;;;;;;;;;;;6331472;28;20336;-84
2023/10/08 08:20:43;;;;;;;;;;;;;;;;;;6333262;28;19907;-83
2023/10/08 08:23:49;;;;;;;;;;;;;;;;;;6327191;28;19912;-82
2023/10/08 08:27:38;;;;;;;;;;;;;;;;;;6328441;28;19913;-83
2023/10/08 08:30:10;;;;;;;;;;;;;;;;;;6329696;28;19978;-82
2023/10/08 08:33:10;;;;;;;;;;;;;;;;;;6307808;28;19916;-85
2023/10/08 08:36:10;;;;;;;;;;;;;;;;;;6302974;28;19912;-86
2023/10/08 08:39:10;;;;;;;;;;;;;;;;;;6337776;28;20003;-85
2023/10/08 08:42:10;;;;;;;;;;;;;;;;;;6335064;28;19914;-85
2023/10/08 08:45:10;;;;;;;;;;;;;;;;;;6312882;28;19915;-85
2023/10/08 08:48:11;;;;;;;;;;;;;;;;;;6321917;28;19919;-84
2023/10/08 08:51:13;;;;;;;;;;;;;;;;;;6318727;28;19948;-85
2023/10/08 08:54:14;;;;;;;;;;;;;;;;;;6329827;28;20453;-83
2023/10/08 08:57:15;;;;;;;;;;;;;;;;;;6317334;28;19965;-83
2023/10/08 09:00:16;;;;;;;;;;;;;;;;;;6335671;28;20344;-83
2023/10/08 09:03:16;;;;;;;;;;;;;;;;;;6321186;28;20476;-82
2023/10/08 09:06:17;;;;;;;;;;;;;;;;;;6315234;28;19927;-82
2023/10/08 09:09:23;;;;;;;;;;;;;;;;;;6336347;28;19918;-83
2023/10/08 09:12:23;;;;;;;;;;;;;;;;;;6322692;28;19916;-84
2023/10/08 09:15:23;;;;;;;;;;;;;;;;;;6328829;28;20359;-82
2023/10/08 09:18:23;;;;;;;;;;;;;;;;;;6312803;28;19943;-82
2023/10/08 09:21:23;;;;;;;;;;;;;;;;;;6329428;28;19912;-82
2023/10/08 09:24:23;;;;;;;;;;;;;;;;;;6339157;27;20484;-83
2023/10/08 09:27:24;;;;;;;;;;;;;;;;;;6343982;28;19926;-82
2023/10/08 09:30:25;;;;;;;;;;;;;;;;;;6305457;28;19912;-83
2023/10/08 09:33:25;;;;;;;;;;;;;;;;;;6341583;28;19913;-82
2023/10/08 09:36:32;;;;;;;;;;;;;;;;;;6337026;28;20400;-82
2023/10/08 09:39:35;;;;;;;;;;;;;;;;;;6329389;28;20559;-83
2023/10/08 09:42:35;;;;;;;;;;;;;;;;;;6335814;28;19916;-83
2023/10/08 09:45:36;;;;;;;;;;;;;;;;;;6330028;28;19927;-82
2023/10/08 09:48:36;;;;;;;;;;;;;;;;;;6334902;28;20324;-82
2023/10/08 09:51:38;;;;;;;;;;;;;;;;;;6330720;27;19927;-81
2023/10/08 09:54:40;;;;;;;;;;;;;;;;;;6335882;28;19919;-82
2023/10/08 09:57:40;;;;;;;;;;;;;;;;;;6334365;28;19928;-83
2023/10/08 10:00:40;;;;;;;;;;;;;;;;;;6314629;28;20301;-82
2023/10/08 10:03:42;;;;;;;;;;;;;;;;;;6340436;28;20356;-82
2023/10/08 10:06:44;;;;;;;;;;;;;;;;;;6330065;28;20493;-82
2023/10/08 10:09:47;;;;;;;;;;;;;;;;;;6340211;27;20011;-82
2023/10/08 10:12:47;;;;;;;;;;;;;;;;;;6311644;27;20286;-82
2023/10/08 10:15:48;;;;;;;;;;;;;;;;;;6313349;28;19939;-82
2023/10/08 10:18:48;;;;;;;;;;;;;;;;;;6322487;27;19925;-83
2023/10/08 10:21:48;;;;;;;;;;;;;;;;;;6332476;27;20278;-83
2023/10/08 10:24:48;;;;;;;;;;;;;;;;;;6335923;28;19918;-82
2023/10/08 10:27:48;;;;;;;;;;;;;;;;;;6325064;28;20038;-86
2023/10/08 10:30:49;;;;;;;;;;;;;;;;;;6328971;28;19930;-86
2023/10/08 10:33:49;;;;;;;;;;;;;;;;;;6312177;28;19930;-87
2023/10/08 10:36:49;;;;;;;;;;;;;;;;;;6328148;27;20023;-83
2023/10/08 10:39:55;;;;;;;;;;;;;;;;;;6313335;28;19990;-83
2023/10/08 10:42:55;;;;;;;;;;;;;;;;;;6335329;28;19912;-84
2023/10/08 10:45:55;;;;;;;;;;;;;;;;;;6323612;28;20299;-83
2023/10/08 10:49:18;;;;;;;;;;;;;;;;;;6327986;28;19970;-84
2023/10/08 10:52:31;;;;;;;;;;;;;;;;;;6311919;28;19922;-82
2023/10/08 10:55:31;;;;;;;;;;;;;;;;;;6328533;28;20000;-83
2023/10/08 10:58:38;;;;;;;;;;;;;;;;;;6315705;28;19924;-84
2023/10/08 11:01:46;;;;;;;;;;;;;;;;;;6336211;28;19968;-84
2023/10/08 11:04:49;;;;;;;;;;;;;;;;;;6303966;28;19912;-82
2023/10/08 11:07:50;;;;;;;;;;;;;;;;;;6309593;28;19965;-81
2023/10/08 11:10:58;;;;;;;;;;;;;;;;;;6319065;28;20010;-81
2023/10/08 11:14:00;;;;;;;;;;;;;;;;;;6326419;28;20014;-81
2023/10/08 11:17:00;;;;;;;;;;;;;;;;;;6323142;28;20002;-82
2023/10/08 11:20:06;;;;;;;;;;;;;;;;;;6335688;28;20280;-81
2023/10/08 11:23:18;;;;;;;;;;;;;;;;;;6318178;28;19920;-82
2023/10/08 11:26:19;;;;;;;;;;;;;;;;;;6317011;28;19916;-82
2023/10/08 11:29:25;;;;;;;;;;;;;;;;;;6316655;28;20038;-81
2023/10/08 11:32:30;;;;;;;;;;;;;;;;;;6331308;28;20386;-81
2023/10/08 11:35:33;;;;;;;;;;;;;;;;;;6318102;28;19915;-81
2023/10/08 11:38:37;;;;;;;;;;;;;;;;;;6330576;28;20007;-89
2023/10/08 11:41:50;;;;;;;;;;;;;;;;;;6322422;28;20388;-89
2023/10/08 11:44:52;;;;;;;;;;;;;;;;;;6313417;28;19964;-89
2023/10/08 11:47:55;;;;;;;;;;;;;;;;;;6312557;28;19920;-89
2023/10/08 11:51:01;;;;;;;;;;;;;;;;;;6313900;28;19969;-89
2023/10/08 11:54:01;;;;;;;;;;;;;;;;;;6333154;28;19912;-89
2023/10/08 11:57:02;;;;;;;;;;;;;;;;;;6307030;28;19928;-89
2023/10/08 12:00:18;;;;;;;;;;;;;;;;;;6308466;28;19916;-89
2023/10/08 12:03:18;;;;;;;;;;;;;;;;;;6319746;28;20030;-89
2023/10/08 12:06:18;;;;;;;;;;;;;;;;;;6329635;28;19922;-89
2023/10/08 12:09:21;;;;;;;;;;;;;;;;;;6322227;28;19919;-89
2023/10/08 12:12:23;;;;;;;;;;;;;;;;;;6323173;28;19923;-89
2023/10/08 12:15:26;;;;;;;;;;;;;;;;;;6335068;27;19919;-89
2023/10/08 12:18:26;;;;;;;;;;;;;;;;;;6325384;28;19954;-87
2023/10/08 12:21:29;;;;;;;;;;;;;;;;;;6330664;28;19908;-88
2023/10/08 12:24:30;;;;;;;;;;;;;;;;;;6309553;28;20019;-86
2023/10/08 12:27:30;;;;;;;;;;;;;;;;;;6333509;28;19911;-88
2023/10/08 12:30:30;;;;;;;;;;;;;;;;;;6332887;28;20301;-91
2023/10/08 12:33:31;;;;;;;;;;;;;;;;;;6333692;28;19916;-89
2023/10/08 12:36:36;;;;;;;;;;;;;;;;;;6332409;28;19981;-90
2023/10/08 12:39:44;;;;;;;;;;;;;;;;;;6333899;28;20239;-89
2023/10/08 12:42:48;;;;;;;;;;;;;;;;;;6333384;28;19957;-89
2023/10/08 12:45:54;;;;;;;;;;;;;;;;;;6326284;28;20011;-89
2023/10/08 12:48:54;;;;;;;;;;;;;;;;;;6339225;28;19916;-89
2023/10/08 12:51:54;;;;;;;;;;;;;;;;;;6336645;28;19969;-89
2023/10/08 12:54:55;;;;;;;;;;;;;;;;;;6337332;28;20446;-88
2023/10/08 12:58:05;;;;;;;;;;;;;;;;;;6328903;28;19968;-88
2023/10/08 13:01:07;;;;;;;;;;;;;;;;;;6340890;28;19912;-89
2023/10/08 13:04:07;;;;;;;;;;;;;;;;;;6317161;28;20289;-89
2023/10/08 13:07:07;;;;;;;;;;;;;;;;;;6324952;28;19908;-89
2023/10/08 13:10:07;;;;;;;;;;;;;;;;;;6325762;27;19915;-88
2023/10/08 13:13:08;;;;;;;;;;;;;;;;;;6332730;28;19916;-89
2023/10/08 13:16:08;;;;;;;;;;;;;;;;;;6338428;28;19961;-89
2023/10/08 13:19:08;;;;;;;;;;;;;;;;;;6337942;28;20357;-89
2023/10/08 13:22:08;;;;;;;;;;;;;;;;;;6311074;28;19908;-89
2023/10/08 13:25:09;;;;;;;;;;;;;;;;;;6327552;28;19915;-89
2023/10/08 13:28:11;;;;;;;;;;;;;;;;;;6342346;28;19919;-89
2023/10/08 13:31:11;;;;;;;;;;;;;;;;;;6337413;28;20081;-89
2023/10/08 13:34:12;;;;;;;;;;;;;;;;;;6303769;28;20293;-88
2023/10/08 13:37:14;;;;;;;;;;;;;;;;;;6335129;28;19912;-89
2023/10/08 13:40:15;;;;;;;;;;;;;;;;;;6337508;28;19914;-88
2023/10/08 13:43:17;;;;;;;;;;;;;;;;;;6324201;28;20285;-89
2023/10/08 13:46:17;;;;;;;;;;;;;;;;;;6329160;28;19924;-88
2023/10/08 13:49:18;;;;;;;;;;;;;;;;;;6333950;28;19912;-89
2023/10/08 13:52:20;;;;;;;;;;;;;;;;;;6330601;28;19920;-88
2023/10/08 13:55:25;;;;;;;;;;;;;;;;;;6330569;28;19923;-89
2023/10/08 13:58:25;;;;;;;;;;;;;;;;;;6330865;28;19927;-81
2023/10/08 14:01:25;;;;;;;;;;;;;;;;;;6320452;28;19908;-81
2023/10/08 14:04:39;;;;;;;;;;;;;;;;;;6330036;28;19969;-81
2023/10/08 14:07:39;;;;;;;;;;;;;;;;;;6312208;28;19912;-81
2023/10/08 14:10:43;;;;;;;;;;;;;;;;;;6338310;27;19916;-81
2023/10/08 14:13:43;;;;;;;;;;;;;;;;;;6323795;28;20673;-82
2023/10/08 14:16:43;;;;;;;;;;;;;;;;;;6335557;28;19916;-81
2023/10/08 14:19:46;;;;;;;;;;;;;;;;;;6306789;28;19997;-81
2023/10/08 14:22:52;;;;;;;;;;;;;;;;;;6329769;28;19939;-80
2023/10/08 14:25:52;;;;;;;;;;;;;;;;;;6331135;27;19915;-81
2023/10/08 14:28:58;;;;;;;;;;;;;;;;;;6334858;27;20426;-80
2023/10/08 14:31:59;;;;;;;;;;;;;;;;;;6329801;27;19945;-81
2023/10/08 14:44:57;;;;;;;;;;;;;;;;;;6325324;28;19915;-85
2023/10/08 14:47:57;;;;;;;;;;;;;;;;;;6337426;28;19912;-85
2023/10/08 14:50:59;;;;;;;;;;;;;;;;;;6332666;28;19965;-86
2023/10/08 14:54:01;;;;;;;;;;;;;;;;;;6329935;28;19924;-84
2023/10/08 14:57:02;;;;;;;;;;;;;;;;;;6328142;28;19923;-84
2023/10/08 15:00:05;;;;;;;;;;;;;;;;;;6326560;28;19908;-84
2023/10/08 15:03:05;;;;;;;;;;;;;;;;;;6322090;28;19916;-83
2023/10/08 15:06:07;;;;;;;;;;;;;;;;;;6339000;28;20585;-84
2023/10/08 15:09:08;;;;;;;;;;;;;;;;;;6334407;28;19919;-84
2023/10/08 15:12:09;;;;;;;;;;;;;;;;;;6340143;27;19924;-81
2023/10/08 15:15:13;;;;;;;;;;;;;;;;;;6333767;28;20376;-80
2023/10/08 15:18:14;;;;;;;;;;;;;;;;;;6332222;28;19982;-88
2023/10/08 15:21:15;;;;;;;;;;;;;;;;;;6331180;28;19911;-88
2023/10/08 15:24:15;;;;;;;;;;;;;;;;;;6329287;28;19915;-88
2023/10/08 15:27:15;;;;;;;;;;;;;;;;;;6312034;28;20027;-87
2023/10/08 15:30:16;;;;;;;;;;;;;;;;;;6311136;28;20014;-88
2023/10/08 15:33:17;;;;;;;;;;;;;;;;;;6315067;28;20688;-88
2023/10/08 15:36:17;;;;;;;;;;;;;;;;;;6331789;28;19935;-88
2023/10/08 15:39:22;;;;;;;;;;;;;;;;;;6308639;28;19908;-87
2023/10/08 15:42:22;;;;;;;;;;;;;;;;;;6333086;28;20327;-88
2023/10/08 15:45:23;;;;;;;;;;;;;;;;;;6333075;28;19907;-87
2023/10/08 15:48:25;;;;;;;;;;;;;;;;;;6328793;28;19916;-87
2023/10/08 15:51:27;;;;;;;;;;;;;;;;;;6341080;28;19919;-88
2023/10/08 15:54:27;;;;;;;;;;;;;;;;;;6337200;27;19922;-88
2023/10/08 15:57:27;;;;;;;;;;;;;;;;;;6320430;28;20035;-87
2023/10/08 16:00:27;;;;;;;;;;;;;;;;;;6315277;28;19974;-88
2023/10/08 16:03:27;;;;;;;;;;;;;;;;;;6305079;28;20315;-87
2023/10/08 16:06:27;;;;;;;;;;;;;;;;;;6330304;28;19918;-87
2023/10/08 16:09:28;;;;;;;;;;;;;;;;;;6328110;28;19958;-87
2023/10/08 16:12:28;;;;;;;;;;;;;;;;;;6325198;28;19948;-87
2023/10/08 16:15:28;;;;;;;;;;;;;;;;;;6319007;28;20454;-88
2023/10/08 16:18:28;;;;;;;;;;;;;;;;;;6331404;28;19907;-87
2023/10/08 16:21:28;;;;;;;;;;;;;;;;;;6313348;28;19919;-86
2023/10/08 16:24:30;;;;;;;;;;;;;;;;;;6334991;28;19923;-87
2023/10/08 16:27:34;;;;;;;;;;;;;;;;;;6315480;28;19920;-88
2023/10/08 16:30:34;;;;;;;;;;;;;;;;;;6331812;27;19912;-86
2023/10/08 16:33:34;;;;;;;;;;;;;;;;;;6341020;28;19920;-87
2023/10/08 16:36:34;;;;;;;;;;;;;;;;;;6338907;28;19912;-87
2023/10/08 16:39:34;;;;;;;;;;;;;;;;;;6331671;28;19965;-86
2023/10/08 16:42:35;;;;;;;;;;;;;;;;;;6314724;28;19912;-87
2023/10/08 16:45:35;;;;;;;;;;;;;;;;;;6309576;28;19935;-87
2023/10/08 16:48:35;;;;;;;;;;;;;;;;;;6328653;28;19912;-88
2023/10/08 16:51:35;;;;;;;;;;;;;;;;;;6313060;28;20436;-86
2023/10/08 16:54:35;;;;;;;;;;;;;;;;;;6332880;28;20032;-86
2023/10/08 16:57:36;;;;;;;;;;;;;;;;;;6326851;28;19930;-88
2023/10/08 17:00:38;;;;;;;;;;;;;;;;;;6340050;28;19912;-87
2023/10/08 17:03:38;;;;;;;;;;;;;;;;;;6339236;27;19912;-86
2023/10/08 17:06:39;;;;;;;;;;;;;;;;;;6343741;27;20452;-87
2023/10/08 17:09:39;;;;;;;;;;;;;;;;;;6339213;27;19926;-88
2023/10/08 17:12:40;;;;;;;;;;;;;;;;;;6330356;27;20002;-87
2023/10/08 17:15:40;;;;;;;;;;;;;;;;;;6314053;28;20383;-86
2023/10/08 17:18:43;;;;;;;;;;;;;;;;;;6329590;28;20417;-86
2023/10/08 17:21:44;;;;;;;;;;;;;;;;;;6333064;28;19922;-87
2023/10/08 17:24:44;;;;;;;;;;;;;;;;;;6313179;28;20362;-86
2023/10/08 17:27:45;;;;;;;;;;;;;;;;;;6327470;28;19920;-81
2023/10/08 17:30:45;;;;;;;;;;;;;;;;;;6309807;27;19916;-80
2023/10/08 17:33:45;;;;;;;;;;;;;;;;;;6306358;28;19922;-81
2023/10/08 17:36:48;;;;;;;;;;;;;;;;;;6335301;28;20336;-87
2023/10/08 17:39:48;;;;;;;;;;;;;;;;;;6336417;27;19915;-87
2023/10/08 17:42:48;;;;;;;;;;;;;;;;;;6322417;28;19985;-87
2023/10/08 17:45:49;;;;;;;;;;;;;;;;;;6337818;28;19955;-85
2023/10/08 17:48:53;;;;;;;;;;;;;;;;;;6334046;28;19908;-87
2023/10/08 17:51:53;;;;;;;;;;;;;;;;;;6312128;28;19920;-87
2023/10/08 17:54:54;;;;;;;;;;;;;;;;;;6331520;28;19923;-87
2023/10/08 17:57:54;;;;;;;;;;;;;;;;;;6311418;28;20408;-87
2023/10/08 18:00:54;;;;;;;;;;;;;;;;;;6310590;28;19919;-88
2023/10/08 18:03:54;;;;;;;;;;;;;;;;;;6331851;28;19916;-87
2023/10/08 18:06:55;;;;;;;;;;;;;;;;;;6334662;28;19923;-88
2023/10/08 18:09:55;;;;;;;;;;;;;;;;;;6325303;27;19962;-87
2023/10/08 18:12:56;;;;;;;;;;;;;;;;;;6343401;27;19915;-87
2023/10/08 18:15:56;;;;;;;;;;;;;;;;;;6327548;28;19908;-87
2023/10/08 18:18:56;;;;;;;;;;;;;;;;;;6328550;28;20389;-87
2023/10/08 18:21:58;;;;;;;;;;;;;;;;;;6319174;28;20376;-88
2023/10/08 18:24:58;;;;;;;;;;;;;;;;;;6330297;28;20005;-88
2023/10/08 18:27:59;;;;;;;;;;;;;;;;;;6319801;28;19912;-88
2023/10/08 18:30:59;;;;;;;;;;;;;;;;;;6328095;28;20534;-87
2023/10/08 18:33:59;;;;;;;;;;;;;;;;;;6337801;28;19916;-87
2023/10/08 18:37:00;;;;;;;;;;;;;;;;;;6330292;28;20011;-80
2023/10/08 18:40:00;;;;;;;;;;;;;;;;;;6324469;28;20374;-81
2023/10/08 18:43:00;;;;;;;;;;;;;;;;;;6326014;27;19931;-81
2023/10/08 18:46:01;;;;;;;;;;;;;;;;;;6319802;28;19912;-80
2023/10/08 18:49:01;;;;;;;;;;;;;;;;;;6323367;28;20259;-82
2023/10/08 18:52:01;;;;;;;;;;;;;;;;;;6328741;28;19927;-81
2023/10/08 18:55:01;;;;;;;;;;;;;;;;;;6325401;28;19908;-80
2023/10/08 18:58:04;;;;;;;;;;;;;;;;;;6309742;28;20296;-81
2023/10/08 19:01:04;;;;;;;;;;;;;;;;;;6331598;28;19935;-81
2023/10/08 19:04:06;;;;;;;;;;;;;;;;;;6320260;28;20337;-81
2023/10/08 19:07:06;;;;;;;;;;;;;;;;;;6328776;28;19913;-80
2023/10/08 19:10:09;;;;;;;;;;;;;;;;;;6311002;28;19927;-81
2023/10/08 19:13:09;;;;;;;;;;;;;;;;;;6327068;28;19923;-81
2023/10/08 19:16:09;;;;;;;;;;;;;;;;;;6310640;28;20446;-81
2023/10/08 19:19:12;;;;;;;;;;;;;;;;;;6303724;28;20457;-81
2023/10/08 19:22:12;;;;;;;;;;;;;;;;;;6328411;28;19919;-80
2023/10/08 19:25:13;;;;;;;;;;;;;;;;;;6320759;28;19916;-81
2023/10/08 19:28:15;;;;;;;;;;;;;;;;;;6305998;28;19930;-81
2023/10/08 19:31:16;;;;;;;;;;;;;;;;;;6334903;28;19969;-80
2023/10/08 19:34:17;;;;;;;;;;;;;;;;;;6311571;28;19916;-81
2023/10/08 19:37:17;;;;;;;;;;;;;;;;;;6320147;28;19923;-81
2023/10/08 19:40:21;;;;;;;;;;;;;;;;;;6327030;28;19916;-80
2023/10/08 19:43:23;;;;;;;;;;;;;;;;;;6312805;28;19916;-80
2023/10/08 19:46:25;;;;;;;;;;;;;;;;;;6329321;28;20434;-81
2023/10/08 19:49:25;;;;;;;;;;;;;;;;;;6320485;28;19916;-80
2023/10/08 19:52:25;;;;;;;;;;;;;;;;;;6329444;28;20014;-79
2023/10/08 19:55:26;;;;;;;;;;;;;;;;;;6326372;28;19962;-80
2023/10/08 19:58:26;;;;;;;;;;;;;;;;;;6320293;28;20295;-86
2023/10/08 20:01:27;;;;;;;;;;;;;;;;;;6305073;28;20018;-86
2023/10/08 20:04:27;;;;;;;;;;;;;;;;;;6301762;28;20014;-86
2023/10/08 20:07:28;;;;;;;;;;;;;;;;;;6310167;28;19912;-86
2023/10/08 20:10:29;;;;;;;;;;;;;;;;;;6303427;28;19912;-86
2023/10/08 20:13:29;;;;;;;;;;;;;;;;;;6338143;28;19985;-86
2023/10/08 20:16:30;;;;;;;;;;;;;;;;;;6339828;28;19965;-87
2023/10/08 20:19:30;;;;;;;;;;;;;;;;;;6332401;28;19963;-87
2023/10/08 20:22:32;;;;;;;;;;;;;;;;;;6305151;28;19970;-86
2023/10/08 20:25:33;;;;;;;;;;;;;;;;;;6340931;28;20384;-86
2023/10/08 20:28:33;;;;;;;;;;;;;;;;;;6330158;28;20320;-87
2023/10/08 20:31:35;;;;;;;;;;;;;;;;;;6323454;28;19911;-87
2023/10/08 20:34:35;;;;;;;;;;;;;;;;;;6350006;28;19912;-86
2023/10/08 20:37:36;;;;;;;;;;;;;;;;;;6332558;28;19916;-87
2023/10/08 20:40:36;;;;;;;;;;;;;;;;;;6334095;28;19912;-86
2023/10/08 20:43:36;;;;;;;;;;;;;;;;;;6317471;28;19912;-86
2023/10/08 20:46:36;;;;;;;;;;;;;;;;;;6323121;28;19916;-86
2023/10/08 20:49:37;;;;;;;;;;;;;;;;;;6316044;28;19912;-86
2023/10/08 20:52:38;;;;;;;;;;;;;;;;;;6337809;28;19922;-86
2023/10/08 20:55:43;;;;;;;;;;;;;;;;;;6323906;28;19919;-86
2023/10/08 20:58:43;;;;;;;;;;;;;;;;;;6322565;28;19932;-80
2023/10/08 21:01:43;;;;;;;;;;;;;;;;;;6331315;28;19970;-80
2023/10/08 21:04:44;;;;;;;;;;;;;;;;;;6322922;28;19916;-80
2023/10/08 21:07:44;;;;;;;;;;;;;;;;;;6329467;28;19918;-86
2023/10/08 21:10:44;;;;;;;;;;;;;;;;;;6333556;28;20004;-85
2023/10/08 21:13:45;;;;;;;;;;;;;;;;;;6333007;28;19969;-85
2023/10/08 21:16:45;;;;;;;;;;;;;;;;;;6338920;28;19916;-85
2023/10/08 21:19:46;;;;;;;;;;;;;;;;;;6320789;28;19920;-85
2023/10/08 21:22:46;;;;;;;;;;;;;;;;;;6312595;28;19939;-85
2023/10/08 21:25:47;;;;;;;;;;;;;;;;;;6330155;28;19918;-86
2023/10/08 21:28:48;;;;;;;;;;;;;;;;;;6321067;28;19908;-86
2023/10/08 21:31:48;;;;;;;;;;;;;;;;;;6318541;28;19999;-85
2023/10/08 21:34:50;;;;;;;;;;;;;;;;;;6308738;28;19915;-85
2023/10/08 21:37:50;;;;;;;;;;;;;;;;;;6323974;28;19919;-85
2023/10/08 21:40:51;;;;;;;;;;;;;;;;;;6340649;28;19923;-85